sensor_id;sensor_type;location;lat;lon;timestamp;temperature;humidity
76577;DHT22;65441;44.748;37.600;2024-01-11T00:01:39;0.71;87.51
76577;DHT22;65441;44.748;37.600;2024-01-11T00:04:07;0.69;88.34
76577;DHT22;65441;44.748;37.600;2024-01-11T00:06:39;0.71;88.37
76577;DHT22;65441;44.748;37.600;2024-01-11T00:09:07;0.83;88.74
76577;DHT22;65441;44.748;37.600;2024-01-11T00:11:35;0.92;87.91
76577;DHT22;65441;44.748;37.600;2024-01-11T00:14:03;0.93;88.18
76577;DHT22;65441;44.748;37.600;2024-01-11T00:16:31;1.03;87.76
76577;DHT22;65441;44.748;37.600;2024-01-11T00:19:00;1.14;87.05
76577;DHT22;65441;44.748;37.600;2024-01-11T00:21:28;1.24;86.72
76577;DHT22;65441;44.748;37.600;2024-01-11T00:23:56;1.11;87.04
76577;DHT22;65441;44.748;37.600;2024-01-11T00:26:24;1.11;87.04
76577;DHT22;65441;44.748;37.600;2024-01-11T00:28:52;1.13;86.81
76577;DHT22;65441;44.748;37.600;2024-01-11T00:31:20;1.14;86.68
76577;DHT22;65441;44.748;37.600;2024-01-11T00:33:49;1.21;86.96
76577;DHT22;65441;44.748;37.600;2024-01-11T00:36:21;1.16;87.03
76577;DHT22;65441;44.748;37.600;2024-01-11T00:38:49;1.09;86.90
76577;DHT22;65441;44.748;37.600;2024-01-11T00:41:17;1.08;87.82
76577;DHT22;65441;44.748;37.600;2024-01-11T00:43:45;1.07;87.56
76577;DHT22;65441;44.748;37.600;2024-01-11T00:46:13;1.23;87.42
76577;DHT22;65441;44.748;37.600;2024-01-11T00:48:41;1.27;87.16
76577;DHT22;65441;44.748;37.600;2024-01-11T00:51:09;1.18;87.25
76577;DHT22;65441;44.748;37.600;2024-01-11T00:53:38;1.23;87.26
76577;DHT22;65441;44.748;37.600;2024-01-11T00:56:15;1.21;87.48
76577;DHT22;65441;44.748;37.600;2024-01-11T00:58:43;1.21;87.48
76577;DHT22;65441;44.748;37.600;2024-01-11T01:01:11;1.16;87.08
76577;DHT22;65441;44.748;37.600;2024-01-11T01:03:39;1.14;87.69
76577;DHT22;65441;44.748;37.600;2024-01-11T01:06:07;1.21;88.14
76577;DHT22;65441;44.748;37.600;2024-01-11T01:08:35;1.27;87.55
76577;DHT22;65441;44.748;37.600;2024-01-11T01:11:04;1.33;87.44
76577;DHT22;65441;44.748;37.600;2024-01-11T01:13:33;1.31;87.35
76577;DHT22;65441;44.748;37.600;2024-01-11T01:16:00;1.32;87.12
76577;DHT22;65441;44.748;37.600;2024-01-11T01:18:28;1.36;86.99
76577;DHT22;65441;44.748;37.600;2024-01-11T01:20:56;1.39;86.91
76577;DHT22;65441;44.748;37.600;2024-01-11T01:23:24;1.47;86.72
76577;DHT22;65441;44.748;37.600;2024-01-11T01:25:52;1.39;87.60
76577;DHT22;65441;44.748;37.600;2024-01-11T01:28:22;1.31;86.97
76577;DHT22;65441;44.748;37.600;2024-01-11T01:30:50;1.32;87.22
76577;DHT22;65441;44.748;37.600;2024-01-11T01:33:19;1.33;87.06
76577;DHT22;65441;44.748;37.600;2024-01-11T01:35:47;1.33;87.31
76577;DHT22;65441;44.748;37.600;2024-01-11T01:38:14;1.34;87.23
76577;DHT22;65441;44.748;37.600;2024-01-11T01:40:43;1.34;87.06
76577;DHT22;65441;44.748;37.600;2024-01-11T08:13:52;5.05;83.57
76577;DHT22;65441;44.748;37.600;2024-01-11T08:16:22;5.06;83.44
76577;DHT22;65441;44.748;37.600;2024-01-11T08:18:50;5.07;83.65
76577;DHT22;65441;44.748;37.600;2024-01-11T08:21:18;5.15;84.00
76577;DHT22;65441;44.748;37.600;2024-01-11T08:23:46;5.12;83.55
76577;DHT22;65441;44.748;37.600;2024-01-11T08:26:15;5.12;83.50
76577;DHT22;65441;44.748;37.600;2024-01-11T08:28:45;5.12;84.04
76577;DHT22;65441;44.748;37.600;2024-01-11T08:31:15;5.23;84.37
76577;DHT22;65441;44.748;37.600;2024-01-11T08:33:43;5.30;84.50
76577;DHT22;65441;44.748;37.600;2024-01-11T08:36:12;5.37;84.24
76577;DHT22;65441;44.748;37.600;2024-01-11T08:38:40;5.39;83.59
76577;DHT22;65441;44.748;37.600;2024-01-11T08:41:09;5.42;83.31
76577;DHT22;65441;44.748;37.600;2024-01-11T08:43:36;5.42;83.73
76577;DHT22;65441;44.748;37.600;2024-01-11T08:46:04;5.49;84.07
76577;DHT22;65441;44.748;37.600;2024-01-11T08:48:34;5.51;83.53
76577;DHT22;65441;44.748;37.600;2024-01-11T08:51:02;5.47;83.90
76577;DHT22;65441;44.748;37.600;2024-01-11T08:53:33;5.57;83.95
76577;DHT22;65441;44.748;37.600;2024-01-11T08:56:02;5.59;83.81
76577;DHT22;65441;44.748;37.600;2024-01-11T08:58:30;5.56;84.00
76577;DHT22;65441;44.748;37.600;2024-01-11T09:01:00;5.56;84.19
76577;DHT22;65441;44.748;37.600;2024-01-11T09:03:28;5.55;84.79
76577;DHT22;65441;44.748;37.600;2024-01-11T09:05:58;5.57;84.48
76577;DHT22;65441;44.748;37.600;2024-01-11T09:08:26;5.61;84.61
76577;DHT22;65441;44.748;37.600;2024-01-11T09:10:54;5.64;84.48
76577;DHT22;65441;44.748;37.600;2024-01-11T09:13:23;5.68;84.35
76577;DHT22;65441;44.748;37.600;2024-01-11T09:15:52;5.69;83.83
76577;DHT22;65441;44.748;37.600;2024-01-11T09:18:21;5.76;84.09
76577;DHT22;65441;44.748;37.600;2024-01-11T09:20:50;5.78;84.02
76577;DHT22;65441;44.748;37.600;2024-01-11T09:23:22;5.84;83.97
76577;DHT22;65441;44.748;37.600;2024-01-11T09:25:50;5.89;83.42
76577;DHT22;65441;44.748;37.600;2024-01-11T09:28:19;5.90;83.20
76577;DHT22;65441;44.748;37.600;2024-01-11T09:30:47;5.92;83.58
76577;DHT22;65441;44.748;37.600;2024-01-11T09:33:16;5.94;83.65
76577;DHT22;65441;44.748;37.600;2024-01-11T09:35:44;6.00;83.35
76577;DHT22;65441;44.748;37.600;2024-01-11T09:38:13;6.08;83.02
76577;DHT22;65441;44.748;37.600;2024-01-11T09:40:42;6.12;82.97
76577;DHT22;65441;44.748;37.600;2024-01-11T09:43:11;6.19;82.75
76577;DHT22;65441;44.748;37.600;2024-01-11T09:45:39;6.30;82.97
76577;DHT22;65441;44.748;37.600;2024-01-11T09:48:09;6.29;82.15
76577;DHT22;65441;44.748;37.600;2024-01-11T09:50:40;6.31;81.54
76577;DHT22;65441;44.748;37.600;2024-01-11T09:53:09;6.31;81.36
76577;DHT22;65441;44.748;37.600;2024-01-11T09:55:39;6.43;81.04
76577;DHT22;65441;44.748;37.600;2024-01-11T09:58:11;6.46;80.14
76577;DHT22;65441;44.748;37.600;2024-01-11T10:00:40;6.42;79.96
76577;DHT22;65441;44.748;37.600;2024-01-11T10:03:08;6.44;80.90
76577;DHT22;65441;44.748;37.600;2024-01-11T10:05:38;6.45;81.13
76577;DHT22;65441;44.748;37.600;2024-01-11T10:08:07;6.42;81.06
76577;DHT22;65441;44.748;37.600;2024-01-11T10:10:36;6.40;81.51
76577;DHT22;65441;44.748;37.600;2024-01-11T10:13:05;6.40;82.01
76577;DHT22;65441;44.748;37.600;2024-01-11T10:15:35;6.39;82.02
76577;DHT22;65441;44.748;37.600;2024-01-11T10:18:04;6.37;82.46
76577;DHT22;65441;44.748;37.600;2024-01-11T10:20:33;6.41;82.93
76577;DHT22;65441;44.748;37.600;2024-01-11T10:23:02;6.38;82.52
76577;DHT22;65441;44.748;37.600;2024-01-11T10:25:30;6.40;82.07
76577;DHT22;65441;44.748;37.600;2024-01-11T10:27:59;6.41;80.74
76577;DHT22;65441;44.748;37.600;2024-01-11T10:30:27;6.43;79.87
76577;DHT22;65441;44.748;37.600;2024-01-11T10:32:57;6.48;80.07
76577;DHT22;65441;44.748;37.600;2024-01-11T10:35:26;6.54;80.33
76577;DHT22;65441;44.748;37.600;2024-01-11T10:37:55;6.59;80.12
76577;DHT22;65441;44.748;37.600;2024-01-11T10:40:26;6.63;80.40
76577;DHT22;65441;44.748;37.600;2024-01-11T10:42:56;6.66;79.94
76577;DHT22;65441;44.748;37.600;2024-01-11T10:45:28;6.70;79.85
76577;DHT22;65441;44.748;37.600;2024-01-11T10:48:02;6.71;79.81
76577;DHT22;65441;44.748;37.600;2024-01-11T10:50:34;6.71;77.76
76577;DHT22;65441;44.748;37.600;2024-01-11T10:53:12;6.75;76.06
76577;DHT22;65441;44.748;37.600;2024-01-11T10:55:46;6.79;74.41
76577;DHT22;65441;44.748;37.600;2024-01-11T10:58:16;6.79;74.18
76577;DHT22;65441;44.748;37.600;2024-01-11T11:00:45;6.81;74.53
76577;DHT22;65441;44.748;37.600;2024-01-11T11:03:18;6.78;73.48
76577;DHT22;65441;44.748;37.600;2024-01-11T11:05:48;6.78;74.04
76577;DHT22;65441;44.748;37.600;2024-01-11T11:08:18;6.80;73.55
76577;DHT22;65441;44.748;37.600;2024-01-11T11:10:48;6.81;74.24
76577;DHT22;65441;44.748;37.600;2024-01-11T11:13:17;6.81;74.73
76577;DHT22;65441;44.748;37.600;2024-01-11T11:15:46;6.76;73.67
76577;DHT22;65441;44.748;37.600;2024-01-11T11:18:17;6.75;74.91
76577;DHT22;65441;44.748;37.600;2024-01-11T11:20:47;6.80;75.79
76577;DHT22;65441;44.748;37.600;2024-01-11T11:23:17;6.81;75.25
76577;DHT22;65441;44.748;37.600;2024-01-11T11:25:47;6.84;74.03
76577;DHT22;65441;44.748;37.600;2024-01-11T11:28:17;6.83;73.40
76577;DHT22;65441;44.748;37.600;2024-01-11T11:30:48;6.81;73.06
76577;DHT22;65441;44.748;37.600;2024-01-11T11:33:23;6.80;72.54
76577;DHT22;65441;44.748;37.600;2024-01-11T11:35:54;6.76;73.96
76577;DHT22;65441;44.748;37.600;2024-01-11T11:38:25;6.75;73.89
76577;DHT22;65441;44.748;37.600;2024-01-11T11:40:56;6.76;74.55
76577;DHT22;65441;44.748;37.600;2024-01-11T11:43:26;6.79;74.76
76577;DHT22;65441;44.748;37.600;2024-01-11T11:45:54;6.83;75.16
76577;DHT22;65441;44.748;37.600;2024-01-11T11:48:55;6.86;75.56
76577;DHT22;65441;44.748;37.600;2024-01-11T11:51:24;6.88;74.41
76577;DHT22;65441;44.748;37.600;2024-01-11T11:53:53;6.90;74.92
76577;DHT22;65441;44.748;37.600;2024-01-11T11:56:22;6.96;74.58
76577;DHT22;65441;44.748;37.600;2024-01-11T11:58:52;6.91;74.63
76577;DHT22;65441;44.748;37.600;2024-01-11T12:01:21;6.90;73.89
76577;DHT22;65441;44.748;37.600;2024-01-11T12:03:50;6.85;75.48
76577;DHT22;65441;44.748;37.600;2024-01-11T12:06:20;6.85;76.04
76577;DHT22;65441;44.748;37.600;2024-01-11T12:08:52;6.85;76.75
76577;DHT22;65441;44.748;37.600;2024-01-11T12:11:21;6.85;76.69
76577;DHT22;65441;44.748;37.600;2024-01-11T12:13:51;6.85;76.85
76577;DHT22;65441;44.748;37.600;2024-01-11T12:16:25;6.84;77.57
76577;DHT22;65441;44.748;37.600;2024-01-11T12:18:54;6.82;77.59
76577;DHT22;65441;44.748;37.600;2024-01-11T12:21:24;6.75;77.56
76577;DHT22;65441;44.748;37.600;2024-01-11T12:23:53;6.75;78.53
76577;DHT22;65441;44.748;37.600;2024-01-11T12:26:31;6.71;78.58
76577;DHT22;65441;44.748;37.600;2024-01-11T12:29:00;6.71;78.42
76577;DHT22;65441;44.748;37.600;2024-01-11T12:31:29;6.70;78.79
76577;DHT22;65441;44.748;37.600;2024-01-11T12:33:57;6.75;78.88
76577;DHT22;65441;44.748;37.600;2024-01-11T12:36:28;6.73;78.53
76577;DHT22;65441;44.748;37.600;2024-01-11T12:38:58;6.69;79.09
76577;DHT22;65441;44.748;37.600;2024-01-11T12:41:25;6.67;79.56
76577;DHT22;65441;44.748;37.600;2024-01-11T12:43:53;6.64;78.69
76577;DHT22;65441;44.748;37.600;2024-01-11T12:46:21;6.64;79.37
76577;DHT22;65441;44.748;37.600;2024-01-11T12:48:50;6.63;79.07
76577;DHT22;65441;44.748;37.600;2024-01-11T12:51:18;6.58;79.28
76577;DHT22;65441;44.748;37.600;2024-01-11T12:53:48;6.60;79.27
76577;DHT22;65441;44.748;37.600;2024-01-11T12:56:16;6.58;79.11
76577;DHT22;65441;44.748;37.600;2024-01-11T12:58:45;6.54;80.62
76577;DHT22;65441;44.748;37.600;2024-01-11T13:01:14;6.53;81.54
76577;DHT22;65441;44.748;37.600;2024-01-11T13:03:44;6.51;81.82
76577;DHT22;65441;44.748;37.600;2024-01-11T13:06:15;6.48;82.09
76577;DHT22;65441;44.748;37.600;2024-01-11T13:08:43;6.41;82.87
76577;DHT22;65441;44.748;37.600;2024-01-11T13:11:13;6.36;83.19
76577;DHT22;65441;44.748;37.600;2024-01-11T13:13:43;6.35;84.40
76577;DHT22;65441;44.748;37.600;2024-01-11T13:16:13;6.25;85.20
76577;DHT22;65441;44.748;37.600;2024-01-11T13:18:41;6.09;87.00
76577;DHT22;65441;44.748;37.600;2024-01-11T13:21:09;6.09;87.41
76577;DHT22;65441;44.748;37.600;2024-01-11T13:23:38;5.96;88.41
76577;DHT22;65441;44.748;37.600;2024-01-11T13:26:07;5.93;89.72
76577;DHT22;65441;44.748;37.600;2024-01-11T13:28:37;5.95;89.73
76577;DHT22;65441;44.748;37.600;2024-01-11T13:31:05;5.91;89.82
76577;DHT22;65441;44.748;37.600;2024-01-11T13:33:37;6.00;90.12
76577;DHT22;65441;44.748;37.600;2024-01-11T13:36:06;5.99;89.30
76577;DHT22;65441;44.748;37.600;2024-01-11T13:38:35;5.97;89.47
76577;DHT22;65441;44.748;37.600;2024-01-11T13:41:04;5.93;88.59
76577;DHT22;65441;44.748;37.600;2024-01-11T13:43:34;5.89;89.24
76577;DHT22;65441;44.748;37.600;2024-01-11T13:46:04;5.93;89.36
76577;DHT22;65441;44.748;37.600;2024-01-11T13:48:32;5.86;89.11
76577;DHT22;65441;44.748;37.600;2024-01-11T13:51:00;5.91;88.66
76577;DHT22;65441;44.748;37.600;2024-01-11T13:53:30;5.89;87.60
76577;DHT22;65441;44.748;37.600;2024-01-11T13:55:58;5.82;86.57
76577;DHT22;65441;44.748;37.600;2024-01-11T13:58:26;5.83;86.39
76577;DHT22;65441;44.748;37.600;2024-01-11T14:00:54;5.81;86.92
76577;DHT22;65441;44.748;37.600;2024-01-11T14:03:23;5.78;86.91
76577;DHT22;65441;44.748;37.600;2024-01-11T14:05:52;5.72;86.22
76577;DHT22;65441;44.748;37.600;2024-01-11T14:08:20;5.80;86.29
76577;DHT22;65441;44.748;37.600;2024-01-11T14:10:48;5.76;86.00
76577;DHT22;65441;44.748;37.600;2024-01-11T14:13:16;5.79;86.29
76577;DHT22;65441;44.748;37.600;2024-01-11T14:15:45;5.70;85.26
76577;DHT22;65441;44.748;37.600;2024-01-11T14:18:14;5.78;85.93
76577;DHT22;65441;44.748;37.600;2024-01-11T14:20:44;5.74;85.11
76577;DHT22;65441;44.748;37.600;2024-01-11T14:23:12;5.75;85.17
76577;DHT22;65441;44.748;37.600;2024-01-11T14:25:40;5.83;85.19
76577;DHT22;65441;44.748;37.600;2024-01-11T14:28:08;5.76;83.49
76577;DHT22;65441;44.748;37.600;2024-01-11T14:30:36;5.78;84.88
76577;DHT22;65441;44.748;37.600;2024-01-11T14:33:05;5.77;83.97
76577;DHT22;65441;44.748;37.600;2024-01-11T14:35:33;5.76;83.48
76577;DHT22;65441;44.748;37.600;2024-01-11T14:38:03;5.74;84.57
76577;DHT22;65441;44.748;37.600;2024-01-11T14:40:31;5.69;83.57
76577;DHT22;65441;44.748;37.600;2024-01-11T14:42:59;5.69;84.30
76577;DHT22;65441;44.748;37.600;2024-01-11T14:45:28;5.75;84.84
76577;DHT22;65441;44.748;37.600;2024-01-11T14:47:56;5.71;84.02
76577;DHT22;65441;44.748;37.600;2024-01-11T14:50:25;5.81;83.96
76577;DHT22;65441;44.748;37.600;2024-01-11T14:52:53;5.83;84.16
76577;DHT22;65441;44.748;37.600;2024-01-11T14:55:23;5.79;84.09
76577;DHT22;65441;44.748;37.600;2024-01-11T14:57:51;5.84;84.32
76577;DHT22;65441;44.748;37.600;2024-01-11T15:00:19;5.87;84.59
76577;DHT22;65441;44.748;37.600;2024-01-11T15:03:17;5.86;85.26
76577;DHT22;65441;44.748;37.600;2024-01-11T15:05:59;5.90;85.76
76577;DHT22;65441;44.748;37.600;2024-01-11T15:08:27;5.93;85.92
76577;DHT22;65441;44.748;37.600;2024-01-11T15:10:57;5.95;85.78
76577;DHT22;65441;44.748;37.600;2024-01-11T15:13:25;5.95;85.96
76577;DHT22;65441;44.748;37.600;2024-01-11T15:15:55;5.93;86.64
76577;DHT22;65441;44.748;37.600;2024-01-11T15:18:23;5.93;87.15
76577;DHT22;65441;44.748;37.600;2024-01-11T15:20:52;5.94;87.47
76577;DHT22;65441;44.748;37.600;2024-01-11T15:23:20;5.95;87.89
76577;DHT22;65441;44.748;37.600;2024-01-11T15:25:48;5.97;88.25
76577;DHT22;65441;44.748;37.600;2024-01-11T15:28:18;6.00;88.32
76577;DHT22;65441;44.748;37.600;2024-01-11T15:30:46;5.97;87.65
76577;DHT22;65441;44.748;37.600;2024-01-11T15:33:15;5.99;86.89
76577;DHT22;65441;44.748;37.600;2024-01-11T15:35:43;6.05;86.77
76577;DHT22;65441;44.748;37.600;2024-01-11T15:38:11;6.04;86.83
76577;DHT22;65441;44.748;37.600;2024-01-11T15:40:39;6.09;86.64
76577;DHT22;65441;44.748;37.600;2024-01-11T15:43:09;6.09;85.61
76577;DHT22;65441;44.748;37.600;2024-01-11T15:45:39;6.10;85.44
76577;DHT22;65441;44.748;37.600;2024-01-11T15:48:07;6.12;85.58
76577;DHT22;65441;44.748;37.600;2024-01-11T15:50:34;6.20;85.48
76577;DHT22;65441;44.748;37.600;2024-01-11T15:53:02;6.22;85.67
76577;DHT22;65441;44.748;37.600;2024-01-11T15:55:31;6.21;86.62
76577;DHT22;65441;44.748;37.600;2024-01-11T15:57:59;6.22;86.48
76577;DHT22;65441;44.748;37.600;2024-01-11T16:00:27;6.28;86.12
76577;DHT22;65441;44.748;37.600;2024-01-11T16:02:58;6.24;86.55
76577;DHT22;65441;44.748;37.600;2024-01-11T16:05:26;6.25;87.06
76577;DHT22;65441;44.748;37.600;2024-01-11T16:07:54;6.27;87.32
76577;DHT22;65441;44.748;37.600;2024-01-11T16:10:23;6.25;87.23
76577;DHT22;65441;44.748;37.600;2024-01-11T16:12:51;6.20;87.93
76577;DHT22;65441;44.748;37.600;2024-01-11T16:15:20;6.19;88.05
76577;DHT22;65441;44.748;37.600;2024-01-11T16:17:48;6.15;88.35
76577;DHT22;65441;44.748;37.600;2024-01-11T16:20:17;6.17;87.83
76577;DHT22;65441;44.748;37.600;2024-01-11T16:22:45;6.17;87.53
76577;DHT22;65441;44.748;37.600;2024-01-11T16:25:13;6.13;87.90
76577;DHT22;65441;44.748;37.600;2024-01-11T16:27:42;6.16;88.09
76577;DHT22;65441;44.748;37.600;2024-01-11T16:30:10;6.13;88.67
76577;DHT22;65441;44.748;37.600;2024-01-11T16:32:39;6.11;88.51
76577;DHT22;65441;44.748;37.600;2024-01-11T16:35:08;6.14;87.78
76577;DHT22;65441;44.748;37.600;2024-01-11T16:37:38;6.13;88.59
76577;DHT22;65441;44.748;37.600;2024-01-11T16:40:07;6.15;89.15
76577;DHT22;65441;44.748;37.600;2024-01-11T16:42:37;6.11;89.58
76577;DHT22;65441;44.748;37.600;2024-01-11T16:45:07;6.11;90.02
76577;DHT22;65441;44.748;37.600;2024-01-11T16:47:37;6.08;89.82
76577;DHT22;65441;44.748;37.600;2024-01-11T16:50:07;6.08;88.99
76577;DHT22;65441;44.748;37.600;2024-01-11T16:52:35;6.09;88.98
76577;DHT22;65441;44.748;37.600;2024-01-11T16:55:05;6.10;88.97
76577;DHT22;65441;44.748;37.600;2024-01-11T16:57:35;6.12;88.69
76577;DHT22;65441;44.748;37.600;2024-01-11T17:00:04;6.13;88.95
76577;DHT22;65441;44.748;37.600;2024-01-11T17:02:34;6.12;89.04
76577;DHT22;65441;44.748;37.600;2024-01-11T17:05:02;6.17;88.83
76577;DHT22;65441;44.748;37.600;2024-01-11T17:07:31;6.16;88.64
76577;DHT22;65441;44.748;37.600;2024-01-11T17:10:00;6.21;88.69
76577;DHT22;65441;44.748;37.600;2024-01-11T17:12:30;6.24;89.87
76577;DHT22;65441;44.748;37.600;2024-01-11T17:15:01;6.21;90.62
76577;DHT22;65441;44.748;37.600;2024-01-11T17:17:29;6.16;89.45
76577;DHT22;65441;44.748;37.600;2024-01-11T17:19:58;6.13;89.29
76577;DHT22;65441;44.748;37.600;2024-01-11T17:22:26;6.14;89.70
76577;DHT22;65441;44.748;37.600;2024-01-11T17:24:54;6.16;89.56
76577;DHT22;65441;44.748;37.600;2024-01-11T17:27:24;6.12;89.68
76577;DHT22;65441;44.748;37.600;2024-01-11T17:30:22;6.14;89.62
76577;DHT22;65441;44.748;37.600;2024-01-11T17:32:54;6.15;90.28
76577;DHT22;65441;44.748;37.600;2024-01-11T17:35:23;6.20;89.73
76577;DHT22;65441;44.748;37.600;2024-01-11T17:37:51;6.17;89.34
76577;DHT22;65441;44.748;37.600;2024-01-11T17:40:20;6.15;89.05
76577;DHT22;65441;44.748;37.600;2024-01-11T17:42:48;6.16;88.81
76577;DHT22;65441;44.748;37.600;2024-01-11T17:45:18;6.17;88.14
76577;DHT22;65441;44.748;37.600;2024-01-11T17:47:46;6.15;89.51
76577;DHT22;65441;44.748;37.600;2024-01-11T17:50:14;6.14;88.90
76577;DHT22;65441;44.748;37.600;2024-01-11T17:52:43;6.13;89.86
76577;DHT22;65441;44.748;37.600;2024-01-11T17:55:11;6.16;89.30
76577;DHT22;65441;44.748;37.600;2024-01-11T17:57:39;6.16;89.73
76577;DHT22;65441;44.748;37.600;2024-01-11T18:00:08;6.17;89.55
76577;DHT22;65441;44.748;37.600;2024-01-11T18:02:38;6.21;90.06
76577;DHT22;65441;44.748;37.600;2024-01-11T18:05:07;6.19;88.77
76577;DHT22;65441;44.748;37.600;2024-01-11T18:07:35;6.17;88.18
76577;DHT22;65441;44.748;37.600;2024-01-11T18:10:05;6.17;87.78
76577;DHT22;65441;44.748;37.600;2024-01-11T18:12:34;6.17;88.11
76577;DHT22;65441;44.748;37.600;2024-01-11T18:15:02;6.11;88.67
76577;DHT22;65441;44.748;37.600;2024-01-11T18:17:31;6.11;89.51
76577;DHT22;65441;44.748;37.600;2024-01-11T18:20:02;6.04;89.09
76577;DHT22;65441;44.748;37.600;2024-01-11T18:22:32;6.01;89.15
76577;DHT22;65441;44.748;37.600;2024-01-11T18:25:00;6.00;89.57
76577;DHT22;65441;44.748;37.600;2024-01-11T18:27:28;6.00;89.50
76577;DHT22;65441;44.748;37.600;2024-01-11T18:29:56;5.97;88.84
76577;DHT22;65441;44.748;37.600;2024-01-11T18:32:24;5.98;88.89
76577;DHT22;65441;44.748;37.600;2024-01-11T18:34:53;6.04;89.67
76577;DHT22;65441;44.748;37.600;2024-01-11T18:37:24;6.09;89.99
76577;DHT22;65441;44.748;37.600;2024-01-11T18:39:53;6.11;89.27
76577;DHT22;65441;44.748;37.600;2024-01-11T18:42:22;6.12;89.21
76577;DHT22;65441;44.748;37.600;2024-01-11T18:44:51;6.13;88.99
76577;DHT22;65441;44.748;37.600;2024-01-11T18:47:20;6.13;88.92
76577;DHT22;65441;44.748;37.600;2024-01-11T18:49:49;6.11;88.94
76577;DHT22;65441;44.748;37.600;2024-01-11T18:52:17;6.14;88.83
76577;DHT22;65441;44.748;37.600;2024-01-11T18:54:47;6.15;87.59
76577;DHT22;65441;44.748;37.600;2024-01-11T18:57:18;6.15;88.67
76577;DHT22;65441;44.748;37.600;2024-01-11T18:59:47;6.11;88.64
76577;DHT22;65441;44.748;37.600;2024-01-11T19:02:15;6.13;89.35
76577;DHT22;65441;44.748;37.600;2024-01-11T19:04:44;6.13;88.41
76577;DHT22;65441;44.748;37.600;2024-01-11T19:07:12;6.11;88.56
76577;DHT22;65441;44.748;37.600;2024-01-11T19:09:41;6.13;87.22
76577;DHT22;65441;44.748;37.600;2024-01-11T19:12:10;6.14;87.48
76577;DHT22;65441;44.748;37.600;2024-01-11T19:14:40;6.13;87.93
76577;DHT22;65441;44.748;37.600;2024-01-11T19:17:09;6.14;87.66
76577;DHT22;65441;44.748;37.600;2024-01-11T19:19:37;6.08;88.13
76577;DHT22;65441;44.748;37.600;2024-01-11T19:22:06;6.06;87.86
76577;DHT22;65441;44.748;37.600;2024-01-11T19:24:35;6.05;86.99
76577;DHT22;65441;44.748;37.600;2024-01-11T19:27:05;6.06;87.15
76577;DHT22;65441;44.748;37.600;2024-01-11T19:29:34;6.06;87.32
76577;DHT22;65441;44.748;37.600;2024-01-11T19:32:03;6.08;86.38
76577;DHT22;65441;44.748;37.600;2024-01-11T19:34:32;6.14;86.35
76577;DHT22;65441;44.748;37.600;2024-01-11T19:37:02;6.15;86.99
76577;DHT22;65441;44.748;37.600;2024-01-11T19:39:31;6.19;87.06
76577;DHT22;65441;44.748;37.600;2024-01-11T19:42:00;6.24;86.57
76577;DHT22;65441;44.748;37.600;2024-01-11T19:44:29;6.23;86.27
76577;DHT22;65441;44.748;37.600;2024-01-11T19:46:58;6.25;85.87
76577;DHT22;65441;44.748;37.600;2024-01-11T19:49:27;6.25;84.84
76577;DHT22;65441;44.748;37.600;2024-01-11T19:51:55;6.25;85.20
76577;DHT22;65441;44.748;37.600;2024-01-11T19:54:23;6.27;85.47
76577;DHT22;65441;44.748;37.600;2024-01-11T19:56:51;6.30;85.16
76577;DHT22;65441;44.748;37.600;2024-01-11T19:59:19;6.31;84.92
76577;DHT22;65441;44.748;37.600;2024-01-11T20:01:48;6.33;84.17
76577;DHT22;65441;44.748;37.600;2024-01-11T20:04:17;6.34;82.62
76577;DHT22;65441;44.748;37.600;2024-01-11T20:06:46;6.31;82.56
76577;DHT22;65441;44.748;37.600;2024-01-11T20:09:16;6.31;83.29
76577;DHT22;65441;44.748;37.600;2024-01-11T20:11:44;6.27;82.99
76577;DHT22;65441;44.748;37.600;2024-01-11T20:14:12;6.27;81.98
76577;DHT22;65441;44.748;37.600;2024-01-11T20:16:41;6.25;81.78
76577;DHT22;65441;44.748;37.600;2024-01-11T20:19:09;6.27;82.58
76577;DHT22;65441;44.748;37.600;2024-01-11T20:21:38;6.27;82.26
76577;DHT22;65441;44.748;37.600;2024-01-11T20:24:07;6.30;82.10
76577;DHT22;65441;44.748;37.600;2024-01-11T20:26:35;6.31;82.89
76577;DHT22;65441;44.748;37.600;2024-01-11T20:29:03;6.31;82.39
76577;DHT22;65441;44.748;37.600;2024-01-11T20:31:31;6.34;81.97
76577;DHT22;65441;44.748;37.600;2024-01-11T20:34:00;6.31;81.18
76577;DHT22;65441;44.748;37.600;2024-01-11T20:36:28;6.33;80.62
76577;DHT22;65441;44.748;37.600;2024-01-11T20:38:58;6.29;81.26
76577;DHT22;65441;44.748;37.600;2024-01-11T20:41:26;6.33;81.36
76577;DHT22;65441;44.748;37.600;2024-01-11T20:43:55;6.33;80.40
76577;DHT22;65441;44.748;37.600;2024-01-11T20:46:23;6.31;81.42
76577;DHT22;65441;44.748;37.600;2024-01-11T20:48:52;6.34;79.76
76577;DHT22;65441;44.748;37.600;2024-01-11T20:51:20;6.34;79.94
76577;DHT22;65441;44.748;37.600;2024-01-11T20:53:49;6.34;79.05
76577;DHT22;65441;44.748;37.600;2024-01-11T20:56:23;6.35;79.35
76577;DHT22;65441;44.748;37.600;2024-01-11T20:58:51;6.34;78.78
76577;DHT22;65441;44.748;37.600;2024-01-11T21:01:19;6.36;77.88
76577;DHT22;65441;44.748;37.600;2024-01-11T21:03:48;6.34;79.14
76577;DHT22;65441;44.748;37.600;2024-01-11T21:06:16;6.34;78.34
76577;DHT22;65441;44.748;37.600;2024-01-11T21:08:44;6.30;79.09
76577;DHT22;65441;44.748;37.600;2024-01-11T21:11:12;6.34;78.74
76577;DHT22;65441;44.748;37.600;2024-01-11T21:13:45;6.35;78.61
76577;DHT22;65441;44.748;37.600;2024-01-11T21:16:13;6.34;79.04
76577;DHT22;65441;44.748;37.600;2024-01-11T21:18:41;6.33;79.88
76577;DHT22;65441;44.748;37.600;2024-01-11T21:21:10;6.30;80.07
76577;DHT22;65441;44.748;37.600;2024-01-11T21:23:39;6.29;79.59
76577;DHT22;65441;44.748;37.600;2024-01-11T21:26:07;6.29;79.80
76577;DHT22;65441;44.748;37.600;2024-01-11T21:28:35;6.33;80.36
76577;DHT22;65441;44.748;37.600;2024-01-11T21:31:04;6.38;80.63
76577;DHT22;65441;44.748;37.600;2024-01-11T21:33:33;6.38;80.65
76577;DHT22;65441;44.748;37.600;2024-01-11T21:36:01;6.38;79.59
76577;DHT22;65441;44.748;37.600;2024-01-11T21:38:29;6.42;79.73
76577;DHT22;65441;44.748;37.600;2024-01-11T21:40:57;6.41;79.91
76577;DHT22;65441;44.748;37.600;2024-01-11T21:43:25;6.41;81.04
76577;DHT22;65441;44.748;37.600;2024-01-11T21:45:53;6.43;81.07
76577;DHT22;65441;44.748;37.600;2024-01-11T21:48:23;6.40;80.40
76577;DHT22;65441;44.748;37.600;2024-01-11T21:50:51;6.43;80.88
76577;DHT22;65441;44.748;37.600;2024-01-11T21:53:19;6.46;80.98
76577;DHT22;65441;44.748;37.600;2024-01-11T21:55:47;6.46;80.91
76577;DHT22;65441;44.748;37.600;2024-01-11T21:58:16;6.49;80.65
76577;DHT22;65441;44.748;37.600;2024-01-11T22:00:45;6.49;81.06
76577;DHT22;65441;44.748;37.600;2024-01-11T22:03:13;6.44;82.25
76577;DHT22;65441;44.748;37.600;2024-01-11T22:05:43;6.36;82.32
76577;DHT22;65441;44.748;37.600;2024-01-11T22:08:11;6.29;83.54
76577;DHT22;65441;44.748;37.600;2024-01-11T22:10:41;6.29;82.84
76577;DHT22;65441;44.748;37.600;2024-01-11T22:13:10;6.34;82.98